sensor_id;sensor_type;location;lat;lon;timestamp;temperature;humidity
16066;DHT22;8137;48.952;8.970;2023-06-04T00:02:14;15.50;99.90
16066;DHT22;8137;48.952;8.970;2023-06-04T00:04:40;15.50;99.90
16066;DHT22;8137;48.952;8.970;2023-06-04T00:07:06;15.50;99.90
16066;DHT22;8137;48.952;8.970;2023-06-04T00:09:31;15.50;99.90
16066;DHT22;8137;48.952;8.970;2023-06-04T00:11:57;15.50;99.90
16066;DHT22;8137;48.952;8.970;2023-06-04T00:14:23;15.40;99.90
16066;DHT22;8137;48.952;8.970;2023-06-04T00:16:48;15.40;99.90
16066;DHT22;8137;48.952;8.970;2023-06-04T00:19:14;15.30;99.90
16066;DHT22;8137;48.952;8.970;2023-06-04T00:21:39;15.20;99.90
16066;DHT22;8137;48.952;8.970;2023-06-04T00:24:06;15.20;99.90
16066;DHT22;8137;48.952;8.970;2023-06-04T00:26:31;15.10;99.90
16066;DHT22;8137;48.952;8.970;2023-06-04T00:28:57;15.10;99.90
16066;DHT22;8137;48.952;8.970;2023-06-04T00:31:23;15.10;99.90
16066;DHT22;8137;48.952;8.970;2023-06-04T00:33:49;15.00;99.90
16066;DHT22;8137;48.952;8.970;2023-06-04T00:36:14;15.00;99.90
16066;DHT22;8137;48.952;8.970;2023-06-04T00:38:40;14.90;99.90
16066;DHT22;8137;48.952;8.970;2023-06-04T00:41:06;14.90;99.90
16066;DHT22;8137;48.952;8.970;2023-06-04T00:43:31;14.90;99.90
16066;DHT22;8137;48.952;8.970;2023-06-04T00:45:58;14.90;99.90
16066;DHT22;8137;48.952;8.970;2023-06-04T00:48:25;14.80;99.90
16066;DHT22;8137;48.952;8.970;2023-06-04T00:50:53;14.80;99.90
16066;DHT22;8137;48.952;8.970;2023-06-04T00:53:20;14.70;99.90
16066;DHT22;8137;48.952;8.970;2023-06-04T00:55:48;14.70;99.90
16066;DHT22;8137;48.952;8.970;2023-06-04T00:58:13;14.60;99.90
16066;DHT22;8137;48.952;8.970;2023-06-04T01:00:41;14.60;99.90
16066;DHT22;8137;48.952;8.970;2023-06-04T01:03:12;14.60;99.90
16066;DHT22;8137;48.952;8.970;2023-06-04T01:05:48;14.60;99.90
16066;DHT22;8137;48.952;8.970;2023-06-04T01:08:18;14.50;99.90
16066;DHT22;8137;48.952;8.970;2023-06-04T01:10:54;14.50;99.90
16066;DHT22;8137;48.952;8.970;2023-06-04T01:13:20;14.40;99.90
16066;DHT22;8137;48.952;8.970;2023-06-04T01:15:46;14.40;99.90
16066;DHT22;8137;48.952;8.970;2023-06-04T01:18:15;14.40;99.90
16066;DHT22;8137;48.952;8.970;2023-06-04T01:20:57;14.30;99.90
16066;DHT22;8137;48.952;8.970;2023-06-04T01:26:00;14.30;99.90
16066;DHT22;8137;48.952;8.970;2023-06-04T01:28:29;14.30;99.90
16066;DHT22;8137;48.952;8.970;2023-06-04T01:30:55;14.30;99.90
16066;DHT22;8137;48.952;8.970;2023-06-04T01:33:22;14.20;99.90
16066;DHT22;8137;48.952;8.970;2023-06-04T01:35:48;14.20;99.90
16066;DHT22;8137;48.952;8.970;2023-06-04T01:38:14;14.20;99.90
16066;DHT22;8137;48.952;8.970;2023-06-04T01:40:40;14.10;99.90
16066;DHT22;8137;48.952;8.970;2023-06-04T01:43:09;14.10;99.90
16066;DHT22;8137;48.952;8.970;2023-06-04T01:45:34;14.00;99.90
16066;DHT22;8137;48.952;8.970;2023-06-04T01:48:04;14.00;99.90
16066;DHT22;8137;48.952;8.970;2023-06-04T01:50:30;14.10;99.90
16066;DHT22;8137;48.952;8.970;2023-06-04T01:52:56;14.00;99.90
16066;DHT22;8137;48.952;8.970;2023-06-04T01:55:22;14.10;99.90
16066;DHT22;8137;48.952;8.970;2023-06-04T01:57:50;14.00;99.90
16066;DHT22;8137;48.952;8.970;2023-06-04T02:00:16;14.00;99.90
16066;DHT22;8137;48.952;8.970;2023-06-04T02:02:44;13.90;99.90
16066;DHT22;8137;48.952;8.970;2023-06-04T02:05:14;13.90;99.90
16066;DHT22;8137;48.952;8.970;2023-06-04T02:07:41;13.80;99.90
16066;DHT22;8137;48.952;8.970;2023-06-04T02:10:12;13.80;99.90
16066;DHT22;8137;48.952;8.970;2023-06-04T02:12:40;13.80;99.90
16066;DHT22;8137;48.952;8.970;2023-06-04T02:15:09;13.80;99.90
16066;DHT22;8137;48.952;8.970;2023-06-04T02:17:35;13.80;99.90
16066;DHT22;8137;48.952;8.970;2023-06-04T02:20:08;13.80;99.90
16066;DHT22;8137;48.952;8.970;2023-06-04T02:22:35;13.80;99.90
16066;DHT22;8137;48.952;8.970;2023-06-04T02:25:00;13.80;99.90
16066;DHT22;8137;48.952;8.970;2023-06-04T02:27:26;13.70;99.90
16066;DHT22;8137;48.952;8.970;2023-06-04T02:29:52;13.70;99.90
16066;DHT22;8137;48.952;8.970;2023-06-04T02:32:17;13.70;99.90
16066;DHT22;8137;48.952;8.970;2023-06-04T02:34:43;13.70;99.90
16066;DHT22;8137;48.952;8.970;2023-06-04T02:37:09;13.70;99.90
16066;DHT22;8137;48.952;8.970;2023-06-04T02:39:35;13.70;99.90
16066;DHT22;8137;48.952;8.970;2023-06-04T02:42:01;13.60;99.90
16066;DHT22;8137;48.952;8.970;2023-06-04T02:44:26;13.60;99.90
16066;DHT22;8137;48.952;8.970;2023-06-04T02:46:53;13.50;99.90
16066;DHT22;8137;48.952;8.970;2023-06-04T02:49:19;13.50;99.90
16066;DHT22;8137;48.952;8.970;2023-06-04T02:51:45;13.40;99.90
16066;DHT22;8137;48.952;8.970;2023-06-04T02:54:11;13.40;99.90
16066;DHT22;8137;48.952;8.970;2023-06-04T02:56:37;13.50;99.90
16066;DHT22;8137;48.952;8.970;2023-06-04T02:59:03;13.40;99.90
16066;DHT22;8137;48.952;8.970;2023-06-04T03:01:29;13.40;99.90
16066;DHT22;8137;48.952;8.970;2023-06-04T03:03:55;13.40;99.90
16066;DHT22;8137;48.952;8.970;2023-06-04T03:06:23;13.30;99.90
16066;DHT22;8137;48.952;8.970;2023-06-04T03:08:49;13.40;99.90
16066;DHT22;8137;48.952;8.970;2023-06-04T03:11:16;13.30;99.90
16066;DHT22;8137;48.952;8.970;2023-06-04T03:13:41;13.30;99.90
16066;DHT22;8137;48.952;8.970;2023-06-04T03:16:07;13.30;99.90
16066;DHT22;8137;48.952;8.970;2023-06-04T03:18:35;13.30;99.90
16066;DHT22;8137;48.952;8.970;2023-06-04T03:21:02;13.40;99.90
16066;DHT22;8137;48.952;8.970;2023-06-04T03:23:28;13.40;99.90
16066;DHT22;8137;48.952;8.970;2023-06-04T03:25:53;13.40;99.90
16066;DHT22;8137;48.952;8.970;2023-06-04T03:28:19;13.40;99.90
16066;DHT22;8137;48.952;8.970;2023-06-04T03:30:44;13.40;99.90
16066;DHT22;8137;48.952;8.970;2023-06-04T03:33:10;13.40;99.90
16066;DHT22;8137;48.952;8.970;2023-06-04T03:35:36;13.40;99.90
16066;DHT22;8137;48.952;8.970;2023-06-04T03:38:01;13.40;99.90
16066;DHT22;8137;48.952;8.970;2023-06-04T03:40:27;13.40;99.90
16066;DHT22;8137;48.952;8.970;2023-06-04T03:42:53;13.40;99.90
16066;DHT22;8137;48.952;8.970;2023-06-04T03:45:18;13.40;99.90
16066;DHT22;8137;48.952;8.970;2023-06-04T03:47:44;13.40;99.90
16066;DHT22;8137;48.952;8.970;2023-06-04T03:50:10;13.40;99.90
16066;DHT22;8137;48.952;8.970;2023-06-04T03:52:35;13.50;99.90
16066;DHT22;8137;48.952;8.970;2023-06-04T03:55:01;13.60;99.90
16066;DHT22;8137;48.952;8.970;2023-06-04T03:57:27;13.60;99.90
16066;DHT22;8137;48.952;8.970;2023-06-04T03:59:52;13.70;99.90
16066;DHT22;8137;48.952;8.970;2023-06-04T04:02:18;13.70;99.90
16066;DHT22;8137;48.952;8.970;2023-06-04T04:04:44;13.70;99.90
16066;DHT22;8137;48.952;8.970;2023-06-04T04:07:09;13.70;99.90
16066;DHT22;8137;48.952;8.970;2023-06-04T04:09:36;13.80;99.90
16066;DHT22;8137;48.952;8.970;2023-06-04T04:12:03;13.80;99.90
16066;DHT22;8137;48.952;8.970;2023-06-04T04:14:28;13.80;99.90
16066;DHT22;8137;48.952;8.970;2023-06-04T04:16:54;13.90;99.90
16066;DHT22;8137;48.952;8.970;2023-06-04T04:19:20;13.90;99.90
16066;DHT22;8137;48.952;8.970;2023-06-04T04:21:46;14.00;99.90
16066;DHT22;8137;48.952;8.970;2023-06-04T04:24:25;14.10;99.90
16066;DHT22;8137;48.952;8.970;2023-06-04T04:26:51;14.20;99.90
16066;DHT22;8137;48.952;8.970;2023-06-04T04:29:21;14.30;99.90
16066;DHT22;8137;48.952;8.970;2023-06-04T04:31:51;14.50;99.90
16066;DHT22;8137;48.952;8.970;2023-06-04T04:34:17;14.60;99.90
16066;DHT22;8137;48.952;8.970;2023-06-04T04:36:46;14.70;99.90
16066;DHT22;8137;48.952;8.970;2023-06-04T04:39:18;14.80;99.90
16066;DHT22;8137;48.952;8.970;2023-06-04T04:41:44;14.90;99.90
16066;DHT22;8137;48.952;8.970;2023-06-04T04:44:10;14.90;99.90
16066;DHT22;8137;48.952;8.970;2023-06-04T04:46:35;14.90;99.90
16066;DHT22;8137;48.952;8.970;2023-06-04T04:49:01;14.80;99.90
16066;DHT22;8137;48.952;8.970;2023-06-04T04:51:27;14.80;99.90
16066;DHT22;8137;48.952;8.970;2023-06-04T04:53:52;14.80;99.90
16066;DHT22;8137;48.952;8.970;2023-06-04T04:56:20;14.70;99.90
16066;DHT22;8137;48.952;8.970;2023-06-04T04:58:45;14.70;99.90
16066;DHT22;8137;48.952;8.970;2023-06-04T05:01:11;14.70;99.90
16066;DHT22;8137;48.952;8.970;2023-06-04T05:03:36;14.70;99.90
16066;DHT22;8137;48.952;8.970;2023-06-04T05:06:02;14.70;99.90
16066;DHT22;8137;48.952;8.970;2023-06-04T05:08:28;14.70;99.90
16066;DHT22;8137;48.952;8.970;2023-06-04T05:10:53;14.70;99.90
16066;DHT22;8137;48.952;8.970;2023-06-04T05:13:19;14.60;99.90
16066;DHT22;8137;48.952;8.970;2023-06-04T05:15:45;14.70;99.90
16066;DHT22;8137;48.952;8.970;2023-06-04T05:18:13;14.80;99.90
16066;DHT22;8137;48.952;8.970;2023-06-04T05:20:41;14.80;99.90
16066;DHT22;8137;48.952;8.970;2023-06-04T05:23:06;14.90;99.90
16066;DHT22;8137;48.952;8.970;2023-06-04T05:25:32;15.00;99.90
16066;DHT22;8137;48.952;8.970;2023-06-04T05:27:58;15.00;99.90
16066;DHT22;8137;48.952;8.970;2023-06-04T05:30:23;15.00;99.90
16066;DHT22;8137;48.952;8.970;2023-06-04T05:32:49;15.10;99.90
16066;DHT22;8137;48.952;8.970;2023-06-04T05:35:15;15.20;99.90
16066;DHT22;8137;48.952;8.970;2023-06-04T05:37:41;15.30;99.90
16066;DHT22;8137;48.952;8.970;2023-06-04T05:40:08;15.40;99.90
16066;DHT22;8137;48.952;8.970;2023-06-04T05:42:34;15.40;99.90
16066;DHT22;8137;48.952;8.970;2023-06-04T05:45:00;15.50;99.90
16066;DHT22;8137;48.952;8.970;2023-06-04T05:47:27;15.70;99.90
16066;DHT22;8137;48.952;8.970;2023-06-04T05:49:54;15.80;99.90
16066;DHT22;8137;48.952;8.970;2023-06-04T05:52:19;15.80;99.90
16066;DHT22;8137;48.952;8.970;2023-06-04T05:54:45;15.90;99.90
16066;DHT22;8137;48.952;8.970;2023-06-04T05:57:10;16.10;99.90
16066;DHT22;8137;48.952;8.970;2023-06-04T05:59:36;16.30;99.90
16066;DHT22;8137;48.952;8.970;2023-06-04T06:02:03;16.40;99.90
16066;DHT22;8137;48.952;8.970;2023-06-04T06:04:28;16.50;99.90
16066;DHT22;8137;48.952;8.970;2023-06-04T06:06:55;16.40;99.90
16066;DHT22;8137;48.952;8.970;2023-06-04T06:09:20;16.40;99.90
16066;DHT22;8137;48.952;8.970;2023-06-04T06:11:46;16.50;99.60
16066;DHT22;8137;48.952;8.970;2023-06-04T06:14:11;16.70;99.90
16066;DHT22;8137;48.952;8.970;2023-06-04T06:16:37;16.80;99.90
16066;DHT22;8137;48.952;8.970;2023-06-04T06:19:03;16.60;99.30
16066;DHT22;8137;48.952;8.970;2023-06-04T06:21:28;16.70;99.40
16066;DHT22;8137;48.952;8.970;2023-06-04T06:23:54;16.70;99.10
16066;DHT22;8137;48.952;8.970;2023-06-04T06:26:20;16.70;99.50
16066;DHT22;8137;48.952;8.970;2023-06-04T06:28:47;16.70;98.20
16066;DHT22;8137;48.952;8.970;2023-06-04T06:31:12;16.70;97.20
16066;DHT22;8137;48.952;8.970;2023-06-04T06:33:38;16.70;98.30
16066;DHT22;8137;48.952;8.970;2023-06-04T06:36:10;16.80;97.80
16066;DHT22;8137;48.952;8.970;2023-06-04T06:38:37;16.90;98.30
16066;DHT22;8137;48.952;8.970;2023-06-04T06:41:03;16.90;98.20
16066;DHT22;8137;48.952;8.970;2023-06-04T06:43:28;17.10;99.40
16066;DHT22;8137;48.952;8.970;2023-06-04T06:45:54;17.30;98.40
16066;DHT22;8137;48.952;8.970;2023-06-04T06:48:20;17.40;97.70
16066;DHT22;8137;48.952;8.970;2023-06-04T06:50:46;17.40;96.50
16066;DHT22;8137;48.952;8.970;2023-06-04T06:53:11;17.50;95.90
16066;DHT22;8137;48.952;8.970;2023-06-04T06:55:37;17.60;96.00
16066;DHT22;8137;48.952;8.970;2023-06-04T06:58:02;17.70;94.70
16066;DHT22;8137;48.952;8.970;2023-06-04T07:00:28;17.80;92.80
16066;DHT22;8137;48.952;8.970;2023-06-04T07:02:54;17.90;93.70
16066;DHT22;8137;48.952;8.970;2023-06-04T07:05:20;18.10;94.10
16066;DHT22;8137;48.952;8.970;2023-06-04T07:07:46;18.40;93.20
16066;DHT22;8137;48.952;8.970;2023-06-04T07:10:11;18.60;92.80
16066;DHT22;8137;48.952;8.970;2023-06-04T07:12:38;18.80;90.60
16066;DHT22;8137;48.952;8.970;2023-06-04T07:15:08;18.70;86.40
16066;DHT22;8137;48.952;8.970;2023-06-04T07:17:34;18.60;85.70
16066;DHT22;8137;48.952;8.970;2023-06-04T07:20:00;18.30;84.30
16066;DHT22;8137;48.952;8.970;2023-06-04T07:22:26;18.10;89.30
16066;DHT22;8137;48.952;8.970;2023-06-04T07:24:52;18.00;88.90
16066;DHT22;8137;48.952;8.970;2023-06-04T07:27:18;18.00;89.00
16066;DHT22;8137;48.952;8.970;2023-06-04T07:29:44;18.00;91.00
16066;DHT22;8137;48.952;8.970;2023-06-04T07:32:10;18.30;90.40
16066;DHT22;8137;48.952;8.970;2023-06-04T07:34:37;18.40;88.40
16066;DHT22;8137;48.952;8.970;2023-06-04T07:37:03;18.70;84.80
16066;DHT22;8137;48.952;8.970;2023-06-04T07:39:29;18.60;84.30
16066;DHT22;8137;48.952;8.970;2023-06-04T07:41:54;18.60;83.50
16066;DHT22;8137;48.952;8.970;2023-06-04T07:44:20;18.80;83.60
16066;DHT22;8137;48.952;8.970;2023-06-04T07:46:45;18.90;81.80
16066;DHT22;8137;48.952;8.970;2023-06-04T07:49:11;19.00;80.90
16066;DHT22;8137;48.952;8.970;2023-06-04T07:51:37;19.10;81.60
16066;DHT22;8137;48.952;8.970;2023-06-04T07:54:03;19.20;79.70
16066;DHT22;8137;48.952;8.970;2023-06-04T07:56:28;19.30;82.50
16066;DHT22;8137;48.952;8.970;2023-06-04T07:58:54;19.60;83.80
16066;DHT22;8137;48.952;8.970;2023-06-04T08:01:21;19.80;79.30
16066;DHT22;8137;48.952;8.970;2023-06-04T08:03:47;20.10;82.80
16066;DHT22;8137;48.952;8.970;2023-06-04T08:06:12;20.40;80.40
16066;DHT22;8137;48.952;8.970;2023-06-04T08:08:42;20.40;77.10
16066;DHT22;8137;48.952;8.970;2023-06-04T08:11:11;20.60;79.80
16066;DHT22;8137;48.952;8.970;2023-06-04T08:13:36;20.60;72.10
16066;DHT22;8137;48.952;8.970;2023-06-04T08:16:02;20.50;73.20
16066;DHT22;8137;48.952;8.970;2023-06-04T08:18:27;20.60;72.30
16066;DHT22;8137;48.952;8.970;2023-06-04T08:20:54;20.80;71.30
16066;DHT22;8137;48.952;8.970;2023-06-04T08:23:20;20.90;73.20
16066;DHT22;8137;48.952;8.970;2023-06-04T08:25:45;21.10;67.60
16066;DHT22;8137;48.952;8.970;2023-06-04T08:28:13;21.40;72.80
16066;DHT22;8137;48.952;8.970;2023-06-04T08:30:39;21.60;71.70
16066;DHT22;8137;48.952;8.970;2023-06-04T08:33:04;21.70;68.10
16066;DHT22;8137;48.952;8.970;2023-06-04T08:35:30;21.70;68.20
16066;DHT22;8137;48.952;8.970;2023-06-04T08:37:56;21.80;64.60
16066;DHT22;8137;48.952;8.970;2023-06-04T08:40:21;21.70;66.80
16066;DHT22;8137;48.952;8.970;2023-06-04T08:42:48;21.90;65.90
16066;DHT22;8137;48.952;8.970;2023-06-04T08:45:14;22.10;63.70
16066;DHT22;8137;48.952;8.970;2023-06-04T08:47:44;22.20;61.80
16066;DHT22;8137;48.952;8.970;2023-06-04T08:50:16;22.30;57.70
16066;DHT22;8137;48.952;8.970;2023-06-04T08:52:42;22.30;56.70
16066;DHT22;8137;48.952;8.970;2023-06-04T08:55:10;22.30;55.90
16066;DHT22;8137;48.952;8.970;2023-06-04T08:57:36;22.20;55.70
16066;DHT22;8137;48.952;8.970;2023-06-04T09:00:03;22.50;57.30
16066;DHT22;8137;48.952;8.970;2023-06-04T09:02:30;22.70;54.60
16066;DHT22;8137;48.952;8.970;2023-06-04T09:04:56;22.80;52.70
16066;DHT22;8137;48.952;8.970;2023-06-04T09:07:23;22.70;53.60
16066;DHT22;8137;48.952;8.970;2023-06-04T09:09:50;22.70;53.00
16066;DHT22;8137;48.952;8.970;2023-06-04T09:12:24;23.10;53.40
16066;DHT22;8137;48.952;8.970;2023-06-04T09:14:50;23.00;50.40
16066;DHT22;8137;48.952;8.970;2023-06-04T09:17:24;23.00;50.60
16066;DHT22;8137;48.952;8.970;2023-06-04T09:19:50;23.10;47.60
16066;DHT22;8137;48.952;8.970;2023-06-04T09:22:16;23.00;49.60
16066;DHT22;8137;48.952;8.970;2023-06-04T09:24:43;22.90;47.40
16066;DHT22;8137;48.952;8.970;2023-06-04T09:27:16;23.00;50.40
16066;DHT22;8137;48.952;8.970;2023-06-04T09:29:50;23.30;50.30
16066;DHT22;8137;48.952;8.970;2023-06-04T09:32:21;23.30;44.70
16066;DHT22;8137;48.952;8.970;2023-06-04T09:34:47;23.10;45.60
16066;DHT22;8137;48.952;8.970;2023-06-04T09:37:16;23.30;47.50
16066;DHT22;8137;48.952;8.970;2023-06-04T09:39:55;23.50;46.00
16066;DHT22;8137;48.952;8.970;2023-06-04T09:42:21;23.70;45.60
16066;DHT22;8137;48.952;8.970;2023-06-04T09:44:47;23.80;44.00
16066;DHT22;8137;48.952;8.970;2023-06-04T09:47:13;23.90;41.50
16066;DHT22;8137;48.952;8.970;2023-06-04T09:49:42;23.90;40.90
16066;DHT22;8137;48.952;8.970;2023-06-04T09:52:08;24.00;41.60
16066;DHT22;8137;48.952;8.970;2023-06-04T09:54:36;24.00;39.90
16066;DHT22;8137;48.952;8.970;2023-06-04T09:57:02;24.10;38.00
16066;DHT22;8137;48.952;8.970;2023-06-04T09:59:32;24.20;40.10
16066;DHT22;8137;48.952;8.970;2023-06-04T10:02:03;24.60;39.10
16066;DHT22;8137;48.952;8.970;2023-06-04T10:04:32;24.70;35.30
16066;DHT22;8137;48.952;8.970;2023-06-04T10:06:59;24.90;35.50
16066;DHT22;8137;48.952;8.970;2023-06-04T10:09:25;24.90;33.40
16066;DHT22;8137;48.952;8.970;2023-06-04T10:11:56;24.60;32.30
16066;DHT22;8137;48.952;8.970;2023-06-04T10:14:26;24.60;33.40
16066;DHT22;8137;48.952;8.970;2023-06-04T10:16:54;24.40;30.10
16066;DHT22;8137;48.952;8.970;2023-06-04T10:19:22;24.50;29.80
16066;DHT22;8137;48.952;8.970;2023-06-04T10:21:48;24.60;29.00
16066;DHT22;8137;48.952;8.970;2023-06-04T10:24:14;24.90;29.90
16066;DHT22;8137;48.952;8.970;2023-06-04T10:26:40;24.90;30.00
16066;DHT22;8137;48.952;8.970;2023-06-04T10:29:07;25.10;28.50
16066;DHT22;8137;48.952;8.970;2023-06-04T10:31:34;25.30;28.50
16066;DHT22;8137;48.952;8.970;2023-06-04T10:34:00;25.40;26.60
16066;DHT22;8137;48.952;8.970;2023-06-04T10:36:26;25.20;24.90
16066;DHT22;8137;48.952;8.970;2023-06-04T10:38:53;25.20;25.80
16066;DHT22;8137;48.952;8.970;2023-06-04T10:41:20;25.10;23.60
16066;DHT22;8137;48.952;8.970;2023-06-04T10:43:59;25.10;22.80
16066;DHT22;8137;48.952;8.970;2023-06-04T10:46:25;25.20;22.40
16066;DHT22;8137;48.952;8.970;2023-06-04T10:48:54;25.20;23.20
16066;DHT22;8137;48.952;8.970;2023-06-04T10:51:33;25.30;23.10
16066;DHT22;8137;48.952;8.970;2023-06-04T10:54:00;25.60;21.70
16066;DHT22;8137;48.952;8.970;2023-06-04T10:56:30;25.80;20.30
16066;DHT22;8137;48.952;8.970;2023-06-04T10:58:57;26.10;20.60
16066;DHT22;8137;48.952;8.970;2023-06-04T11:01:32;26.30;20.20
16066;DHT22;8137;48.952;8.970;2023-06-04T11:03:58;26.30;18.70
16066;DHT22;8137;48.952;8.970;2023-06-04T11:06:24;26.40;18.50
16066;DHT22;8137;48.952;8.970;2023-06-04T11:09:05;26.40;17.10
16066;DHT22;8137;48.952;8.970;2023-06-04T11:11:31;26.10;16.70
16066;DHT22;8137;48.952;8.970;2023-06-04T11:14:12;26.10;18.20
16066;DHT22;8137;48.952;8.970;2023-06-04T11:16:38;26.30;19.40
16066;DHT22;8137;48.952;8.970;2023-06-04T11:19:04;26.20;17.00
16066;DHT22;8137;48.952;8.970;2023-06-04T11:21:30;25.90;16.90
16066;DHT22;8137;48.952;8.970;2023-06-04T11:23:58;25.60;17.50
16066;DHT22;8137;48.952;8.970;2023-06-04T11:26:33;25.60;18.30
16066;DHT22;8137;48.952;8.970;2023-06-04T11:29:00;25.70;18.10
16066;DHT22;8137;48.952;8.970;2023-06-04T11:31:26;25.80;16.10
16066;DHT22;8137;48.952;8.970;2023-06-04T11:33:51;25.80;16.20
16066;DHT22;8137;48.952;8.970;2023-06-04T11:36:28;25.50;14.30
16066;DHT22;8137;48.952;8.970;2023-06-04T11:41:21;25.60;14.40
16066;DHT22;8137;48.952;8.970;2023-06-04T11:43:49;25.50;14.50
16066;DHT22;8137;48.952;8.970;2023-06-04T11:46:15;25.70;15.30
16066;DHT22;8137;48.952;8.970;2023-06-04T11:48:41;25.90;15.60
16066;DHT22;8137;48.952;8.970;2023-06-04T11:51:08;26.10;15.00
16066;DHT22;8137;48.952;8.970;2023-06-04T11:53:37;26.10;13.80
16066;DHT22;8137;48.952;8.970;2023-06-04T11:56:02;25.90;13.00
16066;DHT22;8137;48.952;8.970;2023-06-04T11:58:30;25.70;12.60
16066;DHT22;8137;48.952;8.970;2023-06-04T12:00:56;25.70;13.30
16066;DHT22;8137;48.952;8.970;2023-06-04T12:03:37;25.80;15.20
16066;DHT22;8137;48.952;8.970;2023-06-04T12:08:46;26.00;13.50
16066;DHT22;8137;48.952;8.970;2023-06-04T12:14:05;26.20;13.00
16066;DHT22;8137;48.952;8.970;2023-06-04T12:16:32;26.20;12.20
16066;DHT22;8137;48.952;8.970;2023-06-04T12:19:08;26.00;11.60
16066;DHT22;8137;48.952;8.970;2023-06-04T12:21:34;26.20;13.00
16066;DHT22;8137;48.952;8.970;2023-06-04T12:26:33;26.20;13.90
16066;DHT22;8137;48.952;8.970;2023-06-04T12:29:11;26.40;13.80
16066;DHT22;8137;48.952;8.970;2023-06-04T12:31:40;26.70;13.20
16066;DHT22;8137;48.952;8.970;2023-06-04T12:34:06;26.50;11.90
16066;DHT22;8137;48.952;8.970;2023-06-04T12:36:32;26.40;12.00
16066;DHT22;8137;48.952;8.970;2023-06-04T12:39:02;26.70;11.90
16066;DHT22;8137;48.952;8.970;2023-06-04T12:41:28;26.60;11.40
16066;DHT22;8137;48.952;8.970;2023-06-04T12:43:55;26.60;13.20
16066;DHT22;8137;48.952;8.970;2023-06-04T12:46:22;26.90;13.10
16066;DHT22;8137;48.952;8.970;2023-06-04T12:48:52;26.80;12.80
16066;DHT22;8137;48.952;8.970;2023-06-04T12:51:18;26.90;11.60
16066;DHT22;8137;48.952;8.970;2023-06-04T12:53:44;26.70;11.40
16066;DHT22;8137;48.952;8.970;2023-06-04T12:56:10;26.50;10.70
16066;DHT22;8137;48.952;8.970;2023-06-04T12:58:36;26.40;13.60
16066;DHT22;8137;48.952;8.970;2023-06-04T13:01:02;26.50;13.30
16066;DHT22;8137;48.952;8.970;2023-06-04T13:03:29;26.50;12.20
16066;DHT22;8137;48.952;8.970;2023-06-04T13:05:55;27.00;13.00
16066;DHT22;8137;48.952;8.970;2023-06-04T13:08:21;27.20;11.30
16066;DHT22;8137;48.952;8.970;2023-06-04T13:10:48;27.10;9.90
16066;DHT22;8137;48.952;8.970;2023-06-04T13:13:14;27.10;9.10
16066;DHT22;8137;48.952;8.970;2023-06-04T13:15:41;26.70;8.90
16066;DHT22;8137;48.952;8.970;2023-06-04T13:18:08;26.40;9.50
16066;DHT22;8137;48.952;8.970;2023-06-04T13:20:33;26.50;9.20
16066;DHT22;8137;48.952;8.970;2023-06-04T13:22:59;26.60;9.00
16066;DHT22;8137;48.952;8.970;2023-06-04T13:25:24;26.60;9.90
16066;DHT22;8137;48.952;8.970;2023-06-04T13:27:50;26.50;9.30
16066;DHT22;8137;48.952;8.970;2023-06-04T13:30:16;26.60;9.60
16066;DHT22;8137;48.952;8.970;2023-06-04T13:32:41;26.80;8.90
16066;DHT22;8137;48.952;8.970;2023-06-04T13:35:07;26.60;7.40
16066;DHT22;8137;48.952;8.970;2023-06-04T13:37:33;26.50;6.50
16066;DHT22;8137;48.952;8.970;2023-06-04T13:39:58;26.60;7.60
16066;DHT22;8137;48.952;8.970;2023-06-04T13:42:24;26.60;9.20
16066;DHT22;8137;48.952;8.970;2023-06-04T13:44:50;26.30;6.60
16066;DHT22;8137;48.952;8.970;2023-06-04T13:47:15;26.10;7.20
16066;DHT22;8137;48.952;8.970;2023-06-04T13:49:42;26.30;8.70
16066;DHT22;8137;48.952;8.970;2023-06-04T13:52:08;26.70;8.90
16066;DHT22;8137;48.952;8.970;2023-06-04T13:54:34;26.80;7.10
16066;DHT22;8137;48.952;8.970;2023-06-04T13:57:02;26.90;6.40
16066;DHT22;8137;48.952;8.970;2023-06-04T13:59:29;26.80;5.70
16066;DHT22;8137;48.952;8.970;2023-06-04T14:01:56;26.60;7.60
16066;DHT22;8137;48.952;8.970;2023-06-04T14:04:22;26.90;7.70
16066;DHT22;8137;48.952;8.970;2023-06-04T14:06:47;27.00;6.00
16066;DHT22;8137;48.952;8.970;2023-06-04T14:09:13;26.90;5.20
16066;DHT22;8137;48.952;8.970;2023-06-04T14:11:39;26.70;4.00
16066;DHT22;8137;48.952;8.970;2023-06-04T14:14:05;26.70;5.90
16066;DHT22;8137;48.952;8.970;2023-06-04T14:16:31;26.80;6.30
16066;DHT22;8137;48.952;8.970;2023-06-04T14:18:56;27.00;4.40
16066;DHT22;8137;48.952;8.970;2023-06-04T14:21:22;27.00;4.20
16066;DHT22;8137;48.952;8.970;2023-06-04T14:23:48;27.00;4.40
16066;DHT22;8137;48.952;8.970;2023-06-04T14:26:15;27.10;3.20
16066;DHT22;8137;48.952;8.970;2023-06-04T14:28:43;27.00;5.10
16066;DHT22;8137;48.952;8.970;2023-06-04T14:31:08;27.00;3.40
16066;DHT22;8137;48.952;8.970;2023-06-04T14:33:34;27.20;3.10
16066;DHT22;8137;48.952;8.970;2023-06-04T14:36:02;27.40;5.20
16066;DHT22;8137;48.952;8.970;2023-06-04T14:38:28;27.60;4.10
16066;DHT22;8137;48.952;8.970;2023-06-04T14:40:54;27.80;2.80
16066;DHT22;8137;48.952;8.970;2023-06-04T14:43:22;27.70;3.30
16066;DHT22;8137;48.952;8.970;2023-06-04T14:45:47;28.00;2.70
16066;DHT22;8137;48.952;8.970;2023-06-04T14:48:13;27.90;1.00
16066;DHT22;8137;48.952;8.970;2023-06-04T14:50:39;27.90;2.90
16066;DHT22;8137;48.952;8.970;2023-06-04T14:53:04;28.20;3.40
16066;DHT22;8137;48.952;8.970;2023-06-04T14:55:33;28.20;1.70
16066;DHT22;8137;48.952;8.970;2023-06-04T14:57:59;28.20;1.60
16066;DHT22;8137;48.952;8.970;2023-06-04T15:00:25;28.00;1.00
16066;DHT22;8137;48.952;8.970;2023-06-04T15:02:50;27.50;1.00
16066;DHT22;8137;48.952;8.970;2023-06-04T15:05:16;27.30;1.00
16066;DHT22;8137;48.952;8.970;2023-06-04T15:07:42;27.40;1.00
16066;DHT22;8137;48.952;8.970;2023-06-04T15:10:07;27.30;1.00
16066;DHT22;8137;48.952;8.970;2023-06-04T15:12:34;27.20;1.00
16066;DHT22;8137;48.952;8.970;2023-06-04T15:15:06;27.00;1.00
16066;DHT22;8137;48.952;8.970;2023-06-04T15:17:33;26.80;1.00
16066;DHT22;8137;48.952;8.970;2023-06-04T15:19:59;26.90;1.00
16066;DHT22;8137;48.952;8.970;2023-06-04T15:22:25;27.00;1.00
16066;DHT22;8137;48.952;8.970;2023-06-04T15:24:52;27.00;1.00
16066;DHT22;8137;48.952;8.970;2023-06-04T15:27:18;26.90;1.00
16066;DHT22;8137;48.952;8.970;2023-06-04T15:29:44;26.90;1.00
16066;DHT22;8137;48.952;8.970;2023-06-04T15:32:10;26.90;1.00
16066;DHT22;8137;48.952;8.970;2023-06-04T15:34:35;27.00;1.00
16066;DHT22;8137;48.952;8.970;2023-06-04T15:37:01;27.10;1.00
16066;DHT22;8137;48.952;8.970;2023-06-04T15:39:26;27.20;1.00
16066;DHT22;8137;48.952;8.970;2023-06-04T15:41:52;27.30;1.00
16066;DHT22;8137;48.952;8.970;2023-06-04T15:44:17;27.30;1.00
16066;DHT22;8137;48.952;8.970;2023-06-04T15:46:43;27.10;1.00
16066;DHT22;8137;48.952;8.970;2023-06-04T15:49:09;27.00;1.00
16066;DHT22;8137;48.952;8.970;2023-06-04T15:51:35;27.00;1.00
16066;DHT22;8137;48.952;8.970;2023-06-04T15:54:02;26.90;1.00
16066;DHT22;8137;48.952;8.970;2023-06-04T15:56:28;26.90;1.00
16066;DHT22;8137;48.952;8.970;2023-06-04T15:58:54;26.90;1.00
16066;DHT22;8137;48.952;8.970;2023-06-04T16:01:20;26.90;1.10